Time;durP1;ratioP1;P1;durP2;ratioP2;P2;SDS_P1;SDS_P2;PMS_P1;PMS_P2;Temp;Humidity;BMP_temperature;BMP_pressure;BME280_temperature;BME280_humidity;BME280_pressure;Samples;Min_cycle;Max_cycle;Signal;HPM_P1;HPM_P2
2021/11/04 00:00:10;;;;;;;;;;;20.90;61.50;;;;;;5053776;28;1407;-70
2021/11/04 00:02:36;;;;;;;;;;;20.90;61.50;;;;;;5052814;28;1306;-69
2021/11/04 00:05:01;;;;;;;;;;;20.90;61.50;;;;;;5053906;28;1224;-68
2021/11/04 00:07:27;;;;;;;;;;;20.80;61.50;;;;;;5053478;28;1900;-70
2021/11/04 00:09:52;;;;;;;;;;;20.80;61.60;;;;;;5053386;28;1298;-69
2021/11/04 00:12:18;;;;;;;;;;;20.90;61.60;;;;;;5053442;28;1416;-69
2021/11/04 00:14:43;;;;;;;;;;;20.80;61.60;;;;;;5053599;28;1331;-70
2021/11/04 00:17:08;;;;;;;;;;;20.80;61.60;;;;;;5053595;28;1273;-69
2021/11/04 00:19:34;;;;;;;;;;;20.80;61.60;;;;;;5053362;28;1341;-69
2021/11/04 00:21:59;;;;;;;;;;;20.80;61.60;;;;;;5052912;28;1199;-70
2021/11/04 00:24:25;;;;;;;;;;;20.80;61.70;;;;;;5052889;28;1342;-69
2021/11/04 00:26:51;;;;;;;;;;;20.80;61.70;;;;;;5053186;28;1894;-69
2021/11/04 00:29:16;;;;;;;;;;;20.80;61.70;;;;;;5053460;28;1342;-69
2021/11/04 00:31:41;;;;;;;;;;;20.80;61.70;;;;;;5053064;28;1283;-69
2021/11/04 00:34:07;;;;;;;;;;;20.80;61.70;;;;;;5035226;28;1339;-69
2021/11/04 00:36:32;;;;;;;;;;;20.80;61.70;;;;;;5053068;28;1281;-69
2021/11/04 00:38:58;;;;;;;;;;;20.80;61.80;;;;;;5052978;28;1405;-69
2021/11/04 00:41:23;;;;;;;;;;;20.70;61.70;;;;;;5052484;28;1448;-70
2021/11/04 00:43:49;;;;;;;;;;;20.70;61.70;;;;;;5052992;28;1299;-70
2021/11/04 00:46:14;;;;;;;;;;;20.80;61.80;;;;;;5062248;23;2188;-69
2021/11/04 00:48:39;;;;;;;;;;;20.70;61.80;;;;;;5041436;28;1210;-69
2021/11/04 00:51:05;;;;;;;;;;;20.70;61.80;;;;;;5052190;28;1457;-69
2021/11/04 00:53:30;;;;;;;;;;;20.80;61.90;;;;;;5053129;28;1650;-69
2021/11/04 00:55:58;;;;;;;;;;;20.70;62.60;;;;;;5020814;28;1757;-69
2021/11/04 00:58:23;;;;;;;;;;;20.70;61.90;;;;;;5048084;28;1346;-69
2021/11/04 01:00:48;;;;;;;;;;;20.70;61.90;;;;;;5072462;28;1442;-69
2021/11/04 01:03:14;;;;;;;;;;;20.70;62.70;;;;;;5060486;28;838;-69
2021/11/04 01:05:39;;;;;;;;;;;20.70;61.90;;;;;;5072124;28;1271;-69
2021/11/04 01:08:05;;;;;;;;;;;20.70;61.90;;;;;;5042408;28;1902;-69
2021/11/04 01:10:30;;;;;;;;;;;20.70;61.90;;;;;;5071764;28;1337;-69
2021/11/04 01:12:56;;;;;;;;;;;20.70;62.00;;;;;;5041985;28;1268;-69
2021/11/04 01:15:21;;;;;;;;;;;20.70;62.00;;;;;;5065031;28;1405;-68
2021/11/04 01:17:47;;;;;;;;;;;20.70;62.00;;;;;;5041937;28;2045;-69
2021/11/04 01:20:12;;;;;;;;;;;20.70;62.00;;;;;;5030433;28;1425;-69
2021/11/04 01:22:38;;;;;;;;;;;20.70;62.00;;;;;;5063581;28;1357;-69
2021/11/04 01:25:03;;;;;;;;;;;20.70;62.00;;;;;;5051312;28;2351;-69
2021/11/04 01:27:29;;;;;;;;;;;20.70;62.80;;;;;;5058873;28;2459;-68
2021/11/04 01:29:55;;;;;;;;;;;20.70;62.10;;;;;;5051637;28;1257;-68
2021/11/04 01:32:21;;;;;;;;;;;20.70;62.10;;;;;;5051096;28;1364;-68
2021/11/04 01:34:46;;;;;;;;;;;20.70;62.10;;;;;;5051585;28;1338;-68
2021/11/04 01:37:11;;;;;;;;;;;20.70;62.10;;;;;;5051235;28;1674;-69
2021/11/04 01:39:37;;;;;;;;;;;20.70;62.10;;;;;;5051339;28;1524;-68
2021/11/04 01:42:02;;;;;;;;;;;20.60;62.10;;;;;;5051162;28;1389;-69
2021/11/04 01:44:28;;;;;;;;;;;20.70;62.10;;;;;;5051603;28;1367;-68
2021/11/04 01:46:53;;;;;;;;;;;20.70;62.10;;;;;;5051100;28;1973;-68
2021/11/04 01:49:19;;;;;;;;;;;20.70;62.10;;;;;;5052148;28;1718;-70
2021/11/04 01:51:44;;;;;;;;;;;20.70;62.20;;;;;;5053169;28;1381;-68
2021/11/04 01:54:10;;;;;;;;;;;20.60;62.10;;;;;;5071244;28;1525;-69
2021/11/04 01:56:38;;;;;;;;;;;20.70;62.20;;;;;;5071502;28;1371;-68
2021/11/04 01:59:04;;;;;;;;;;;20.60;62.20;;;;;;5034760;28;1442;-68
2021/11/04 02:01:29;;;;;;;;;;;20.60;62.20;;;;;;5033297;28;1384;-68
2021/11/04 02:04:14;;;;;;;;;;;20.60;62.20;;;;;;5069795;28;1464;-68
2021/11/04 02:06:40;;;;;;;;;;;20.60;62.20;;;;;;5052951;28;1964;-68
2021/11/04 02:09:08;;;;;;;;;;;20.60;62.20;;;;;;5045823;28;1213;-68
2021/11/04 02:11:38;;;;;;;;;;;20.60;62.20;;;;;;5065360;28;1619;-68
2021/11/04 02:14:09;;;;;;;;;;;20.60;62.20;;;;;;5053352;28;799;-68
2021/11/04 02:16:34;;;;;;;;;;;20.60;62.30;;;;;;5039807;28;1537;-68
2021/11/04 02:19:00;;;;;;;;;;;20.60;62.30;;;;;;5044100;28;1591;-70
2021/11/04 02:21:31;;;;;;;;;;;20.60;62.20;;;;;;5036570;28;1290;-68
2021/11/04 02:24:05;;;;;;;;;;;20.60;62.30;;;;;;5046619;28;1192;-67
2021/11/04 02:26:31;;;;;;;;;;;20.60;62.30;;;;;;5060087;28;1962;-68
2021/11/04 02:28:57;;;;;;;;;;;20.60;62.30;;;;;;5044045;28;1188;-69
2021/11/04 02:31:22;;;;;;;;;;;20.60;62.30;;;;;;5055195;28;1405;-68
2021/11/04 02:33:48;;;;;;;;;;;20.60;62.30;;;;;;5047046;28;1400;-68
2021/11/04 02:36:13;;;;;;;;;;;20.60;62.40;;;;;;5073040;28;1702;-69
2021/11/04 02:38:39;;;;;;;;;;;20.60;62.40;;;;;;5065097;28;1153;-69
2021/11/04 02:41:05;;;;;;;;;;;20.60;62.40;;;;;;5054565;28;1660;-69
2021/11/04 02:43:31;;;;;;;;;;;20.60;62.40;;;;;;5055692;28;1675;-69
2021/11/04 02:45:56;;;;;;;;;;;20.60;62.40;;;;;;5054748;28;1898;-69
2021/11/04 02:48:22;;;;;;;;;;;20.60;62.40;;;;;;5057785;28;1647;-68
2021/11/04 02:50:48;;;;;;;;;;;20.60;62.40;;;;;;5039946;28;1032;-68
2021/11/04 02:53:14;;;;;;;;;;;20.60;62.40;;;;;;5065824;28;962;-68
2021/11/04 02:55:39;;;;;;;;;;;20.60;62.40;;;;;;5075175;28;1445;-68
2021/11/04 02:58:05;;;;;;;;;;;20.60;62.40;;;;;;5075217;28;1375;-69
2021/11/04 03:00:30;;;;;;;;;;;20.60;62.40;;;;;;5040081;28;1449;-69
2021/11/04 03:02:56;;;;;;;;;;;20.50;62.40;;;;;;5037168;28;1653;-69
2021/11/04 03:05:21;;;;;;;;;;;20.50;62.40;;;;;;5072137;28;1256;-69
2021/11/04 03:07:47;;;;;;;;;;;20.50;62.40;;;;;;5075043;28;1902;-69
2021/11/04 03:10:12;;;;;;;;;;;20.50;62.40;;;;;;5075148;28;1451;-69
2021/11/04 03:12:37;;;;;;;;;;;20.50;62.50;;;;;;5074772;28;1655;-69
2021/11/04 03:15:03;;;;;;;;;;;20.50;62.50;;;;;;5039768;28;1623;-70
2021/11/04 03:17:29;;;;;;;;;;;20.50;62.50;;;;;;5037056;28;1609;-70
2021/11/04 03:19:54;;;;;;;;;;;20.50;62.50;;;;;;5043524;28;1641;-69
2021/11/04 03:22:20;;;;;;;;;;;20.50;62.50;;;;;;5046952;28;1375;-69
2021/11/04 03:24:45;;;;;;;;;;;20.50;62.50;;;;;;5050470;28;1508;-69
2021/11/04 03:27:10;;;;;;;;;;;20.50;62.50;;;;;;5054780;28;1949;-69
2021/11/04 03:29:36;;;;;;;;;;;20.50;62.50;;;;;;5036831;28;1214;-70
2021/11/04 03:32:03;;;;;;;;;;;20.50;62.50;;;;;;5045982;28;1062;-69
2021/11/04 03:34:28;;;;;;;;;;;20.50;62.50;;;;;;5071556;28;1401;-70
2021/11/04 03:36:54;;;;;;;;;;;20.50;62.50;;;;;;5046092;28;1432;-69
2021/11/04 03:39:19;;;;;;;;;;;20.50;62.50;;;;;;5026664;28;1463;-69
2021/11/04 03:41:45;;;;;;;;;;;20.50;62.50;;;;;;5074120;28;1361;-69
2021/11/04 03:44:11;;;;;;;;;;;20.50;62.60;;;;;;5074308;28;1353;-68
2021/11/04 03:46:36;;;;;;;;;;;20.50;62.60;;;;;;5046740;28;1968;-68
2021/11/04 03:49:02;;;;;;;;;;;20.50;62.60;;;;;;5039032;28;1685;-68
2021/11/04 03:51:27;;;;;;;;;;;20.50;62.60;;;;;;5046756;28;1591;-68
2021/11/04 03:53:52;;;;;;;;;;;20.50;62.60;;;;;;5038970;28;1724;-68
2021/11/04 03:56:19;;;;;;;;;;;20.50;62.60;;;;;;5047050;28;1380;-68
2021/11/04 03:58:45;;;;;;;;;;;20.50;62.60;;;;;;5038656;28;1735;-68
2021/11/04 04:01:10;;;;;;;;;;;20.50;62.60;;;;;;5046347;28;1602;-68
2021/11/04 04:03:36;;;;;;;;;;;20.50;62.60;;;;;;5069915;28;1405;-68
2021/11/04 04:06:02;;;;;;;;;;;20.50;62.70;;;;;;5073780;28;1973;-68
2021/11/04 04:08:28;;;;;;;;;;;20.50;62.70;;;;;;5042590;28;1405;-68
2021/11/04 04:10:54;;;;;;;;;;;20.50;62.70;;;;;;5030087;28;1394;-67
2021/11/04 04:13:19;;;;;;;;;;;20.50;62.70;;;;;;5069480;28;1368;-68
2021/11/04 04:15:45;;;;;;;;;;;20.50;62.70;;;;;;5064434;28;1279;-68
2021/11/04 04:18:10;;;;;;;;;;;20.50;62.70;;;;;;5069406;28;1629;-70
2021/11/04 04:20:36;;;;;;;;;;;20.40;62.60;;;;;;5066857;28;1427;-70
2021/11/04 04:23:01;;;;;;;;;;;20.50;62.70;;;;;;5053376;28;1171;-70
2021/11/04 04:25:28;;;;;;;;;;;20.40;62.60;;;;;;5053595;28;1413;-70
2021/11/04 04:27:54;;;;;;;;;;;20.40;62.70;;;;;;5053379;28;1902;-70
2021/11/04 04:30:19;;;;;;;;;;;20.40;62.70;;;;;;5053431;28;1383;-70
2021/11/04 04:32:45;;;;;;;;;;;20.40;62.70;;;;;;5048717;28;1652;-70
2021/11/04 04:35:10;;;;;;;;;;;20.40;62.70;;;;;;5053458;28;1145;-68
2021/11/04 04:37:35;;;;;;;;;;;20.40;62.70;;;;;;5048923;28;1721;-69
2021/11/04 04:40:01;;;;;;;;;;;20.40;62.70;;;;;;5053385;28;1679;-69
2021/11/04 04:42:26;;;;;;;;;;;20.40;62.70;;;;;;5052870;28;1604;-69
2021/11/04 04:44:52;;;;;;;;;;;20.40;62.70;;;;;;5043531;28;1612;-69
2021/11/04 04:47:17;;;;;;;;;;;20.40;62.70;;;;;;5058355;28;1906;-69
2021/11/04 04:49:43;;;;;;;;;;;20.40;62.70;;;;;;5042969;28;1653;-69
2021/11/04 04:52:08;;;;;;;;;;;20.40;62.70;;;;;;5058502;28;1464;-69
2021/11/04 04:54:34;;;;;;;;;;;20.40;62.80;;;;;;5053228;28;1674;-69
2021/11/04 04:56:59;;;;;;;;;;;20.40;62.70;;;;;;5052419;28;1366;-69
2021/11/04 04:59:25;;;;;;;;;;;20.40;63.50;;;;;;5052947;28;1401;-69
2021/11/04 05:01:50;;;;;;;;;;;20.40;62.80;;;;;;5052666;28;1413;-69
2021/11/04 05:04:16;;;;;;;;;;;20.40;62.80;;;;;;5042649;28;1649;-69
2021/11/04 05:06:41;;;;;;;;;;;20.40;62.70;;;;;;5058915;28;1957;-69
2021/11/04 05:09:06;;;;;;;;;;;20.40;62.80;;;;;;5042134;28;1369;-68
2021/11/04 05:11:32;;;;;;;;;;;20.40;62.80;;;;;;5059018;28;1423;-68
2021/11/04 05:13:57;;;;;;;;;;;20.40;62.80;;;;;;5052959;28;895;-69
2021/11/04 05:16:23;;;;;;;;;;;20.40;63.60;;;;;;5052774;28;1244;-69
2021/11/04 05:18:48;;;;;;;;;;;20.40;62.80;;;;;;5060522;28;1695;-69
2021/11/04 05:21:14;;;;;;;;;;;20.40;62.80;;;;;;5060328;28;1473;-68
2021/11/04 05:23:39;;;;;;;;;;;20.40;62.80;;;;;;5052880;28;1434;-69
2021/11/04 05:26:05;;;;;;;;;;;20.40;62.80;;;;;;5052503;28;1902;-69
2021/11/04 05:28:30;;;;;;;;;;;20.40;62.80;;;;;;5052736;28;1653;-69
2021/11/04 05:30:56;;;;;;;;;;;20.40;62.90;;;;;;5047777;28;1267;-69
2021/11/04 05:33:21;;;;;;;;;;;20.40;62.80;;;;;;5042048;28;1662;-69
2021/11/04 05:35:47;;;;;;;;;;;20.40;62.80;;;;;;5058744;28;1619;-69
2021/11/04 05:38:12;;;;;;;;;;;20.40;62.80;;;;;;5052848;28;1644;-69
2021/11/04 05:40:37;;;;;;;;;;;20.40;62.90;;;;;;5052643;28;1481;-69
2021/11/04 05:43:03;;;;;;;;;;;20.40;62.90;;;;;;5052344;28;1604;-69
2021/11/04 05:45:28;;;;;;;;;;;20.40;62.80;;;;;;5052657;28;1380;-69
2021/11/04 05:47:54;;;;;;;;;;;20.40;62.70;;;;;;5048232;28;1969;-69
2021/11/04 05:50:20;;;;;;;;;;;20.50;62.70;;;;;;5065549;28;1583;-68
2021/11/04 05:52:46;;;;;;;;;;;20.50;62.60;;;;;;5062292;28;1951;-69
2021/11/04 05:55:11;;;;;;;;;;;20.50;62.50;;;;;;5070238;28;1510;-70
2021/11/04 05:57:36;;;;;;;;;;;20.50;62.40;;;;;;5063769;28;1727;-70
2021/11/04 06:00:02;;;;;;;;;;;20.60;62.40;;;;;;5047407;28;1675;-70
2021/11/04 06:02:28;;;;;;;;;;;20.60;62.20;;;;;;5057641;28;1607;-70
2021/11/04 06:04:53;;;;;;;;;;;20.60;62.10;;;;;;5063504;28;1373;-70
2021/11/04 06:07:19;;;;;;;;;;;20.60;62.10;;;;;;5055724;28;1911;-69
2021/11/04 06:09:44;;;;;;;;;;;20.70;62.00;;;;;;5056240;28;1360;-69
2021/11/04 06:12:10;;;;;;;;;;;20.70;61.90;;;;;;5055561;28;1707;-69
2021/11/04 06:14:35;;;;;;;;;;;20.70;61.90;;;;;;5056081;28;1712;-69
2021/11/04 06:17:01;;;;;;;;;;;20.70;61.80;;;;;;5051478;28;1783;-68
2021/11/04 06:19:26;;;;;;;;;;;20.70;61.80;;;;;;5038013;28;1635;-67
2021/11/04 06:21:51;;;;;;;;;;;20.70;61.60;;;;;;5057576;28;1636;-69
2021/11/04 06:24:17;;;;;;;;;;;20.80;61.70;;;;;;5050701;28;1610;-67
2021/11/04 06:26:42;;;;;;;;;;;20.70;61.50;;;;;;5056589;28;1954;-68
2021/11/04 06:29:08;;;;;;;;;;;20.80;61.60;;;;;;5055672;28;1415;-70
2021/11/04 06:31:34;;;;;;;;;;;20.80;61.50;;;;;;5056507;28;1658;-70
2021/11/04 06:33:59;;;;;;;;;;;20.80;61.50;;;;;;5063526;28;1598;-70
2021/11/04 06:36:25;;;;;;;;;;;20.80;61.40;;;;;;5055570;28;1705;-72
2021/11/04 06:38:51;;;;;;;;;;;20.80;61.40;;;;;;5055675;28;1379;-72
2021/11/04 06:41:16;;;;;;;;;;;20.80;61.30;;;;;;5056390;28;1715;-72
2021/11/04 06:43:43;;;;;;;;;;;20.80;61.30;;;;;;5074039;28;1652;-72
2021/11/04 06:46:09;;;;;;;;;;;20.80;61.20;;;;;;5069907;23;3749;-71
2021/11/04 06:48:37;;;;;;;;;;;20.90;61.30;;;;;;5052103;28;1629;-70
2021/11/04 06:51:03;;;;;;;;;;;20.90;61.20;;;;;;5052105;28;1377;-68
2021/11/04 06:53:28;;;;;;;;;;;20.90;61.20;;;;;;5030236;28;2184;-68
2021/11/04 06:55:54;;;;;;;;;;;20.90;61.20;;;;;;5061973;28;2428;-69
2021/11/04 06:58:20;;;;;;;;;;;20.90;61.20;;;;;;5034375;28;1435;-70
2021/11/04 07:00:46;;;;;;;;;;;20.90;61.20;;;;;;5035385;28;1391;-70
2021/11/04 07:03:23;;;;;;;;;;;20.90;61.20;;;;;;5035418;28;1371;-70
2021/11/04 07:05:55;;;;;;;;;;;20.90;61.10;;;;;;5042733;28;1385;-69
2021/11/04 07:08:21;;;;;;;;;;;20.90;61.10;;;;;;5054722;28;1906;-67
2021/11/04 07:10:47;;;;;;;;;;;20.90;61.10;;;;;;5054989;28;1703;-67
2021/11/04 07:13:15;;;;;;;;;;;20.90;61.10;;;;;;5054703;28;1442;-68
2021/11/04 07:15:41;;;;;;;;;;;20.90;61.00;;;;;;5047878;28;1525;-68
2021/11/04 07:18:07;;;;;;;;;;;20.90;61.00;;;;;;5050025;28;1397;-69
2021/11/04 07:20:32;;;;;;;;;;;21.00;61.10;;;;;;5048476;28;1716;-69
2021/11/04 07:22:58;;;;;;;;;;;20.90;61.00;;;;;;5034265;28;1634;-68
2021/11/04 07:25:24;;;;;;;;;;;21.00;61.00;;;;;;5033629;28;1264;-68
2021/11/04 07:27:59;;;;;;;;;;;20.90;60.90;;;;;;5034703;28;1977;-68
2021/11/04 07:30:25;;;;;;;;;;;20.90;60.90;;;;;;5034893;28;1368;-67
2021/11/04 07:32:51;;;;;;;;;;;21.00;61.00;;;;;;5032903;28;1448;-68
2021/11/04 07:35:18;;;;;;;;;;;20.90;60.90;;;;;;5033358;28;1389;-68
2021/11/04 07:37:43;;;;;;;;;;;21.00;60.90;;;;;;5034822;28;1726;-68
2021/11/04 07:40:09;;;;;;;;;;;21.00;60.90;;;;;;5034708;28;1393;-68
2021/11/04 07:42:36;;;;;;;;;;;21.00;60.90;;;;;;5034147;28;1442;-68
2021/11/04 07:45:01;;;;;;;;;;;21.00;60.90;;;;;;5034257;28;1630;-68
2021/11/04 07:47:26;;;;;;;;;;;21.00;60.90;;;;;;5047170;28;1913;-68
2021/11/04 07:49:52;;;;;;;;;;;21.00;60.80;;;;;;5045920;28;1464;-69
2021/11/04 07:52:17;;;;;;;;;;;21.10;60.80;;;;;;5069524;28;1345;-69
2021/11/04 07:54:43;;;;;;;;;;;21.10;60.70;;;;;;5053759;28;1667;-69
2021/11/04 07:57:09;;;;;;;;;;;21.20;60.50;;;;;;5054293;28;1383;-71
2021/11/04 07:59:34;;;;;;;;;;;21.20;60.40;;;;;;5061221;28;1368;-70
2021/11/04 08:02:00;;;;;;;;;;;21.30;60.20;;;;;;5073698;28;1608;-71
2021/11/04 08:04:26;;;;;;;;;;;21.40;60.10;;;;;;5046928;28;1651;-70
2021/11/04 08:06:52;;;;;;;;;;;21.50;59.80;;;;;;5069934;28;1968;-69
2021/11/04 08:09:18;;;;;;;;;;;21.60;59.70;;;;;;5074191;28;1372;-70
2021/11/04 08:11:43;;;;;;;;;;;21.70;59.50;;;;;;5073602;28;1425;-70
2021/11/04 08:14:09;;;;;;;;;;;21.70;59.30;;;;;;5073824;28;1352;-69
2021/11/04 08:16:34;;;;;;;;;;;21.80;59.20;;;;;;5060162;28;1371;-69
2021/11/04 08:19:00;;;;;;;;;;;21.80;59.00;;;;;;5073733;28;1693;-70
2021/11/04 08:21:25;;;;;;;;;;;21.90;58.90;;;;;;5059625;28;1511;-69
2021/11/04 08:23:51;;;;;;;;;;;22.00;58.80;;;;;;5043884;28;1733;-69
2021/11/04 08:26:16;;;;;;;;;;;22.00;58.70;;;;;;5057910;28;1910;-69
2021/11/04 08:28:42;;;;;;;;;;;22.10;58.60;;;;;;5053622;28;1659;-69
2021/11/04 08:31:08;;;;;;;;;;;22.10;58.50;;;;;;5053327;28;1673;-69
2021/11/04 08:33:33;;;;;;;;;;;22.20;58.40;;;;;;5053630;28;1347;-69
2021/11/04 08:35:59;;;;;;;;;;;22.20;58.30;;;;;;5053660;28;1389;-70
2021/11/04 08:38:24;;;;;;;;;;;22.20;58.30;;;;;;5053445;28;1633;-70
2021/11/04 08:40:50;;;;;;;;;;;22.20;58.20;;;;;;5048628;28;1452;-69
2021/11/04 08:43:15;;;;;;;;;;;22.30;58.10;;;;;;5053379;28;1699;-70
2021/11/04 08:45:41;;;;;;;;;;;22.30;58.10;;;;;;5053383;28;1405;-70
2021/11/04 08:48:06;;;;;;;;;;;22.30;58.00;;;;;;5042630;28;1977;-72
2021/11/04 08:50:31;;;;;;;;;;;22.40;58.00;;;;;;5059026;28;1573;-69
2021/11/04 08:52:57;;;;;;;;;;;22.40;58.00;;;;;;5060240;28;1146;-70
2021/11/04 08:55:22;;;;;;;;;;;22.40;57.90;;;;;;5059321;28;1289;-68
2021/11/04 08:57:49;;;;;;;;;;;22.40;57.90;;;;;;5042558;28;1608;-69
2021/11/04 09:00:14;;;;;;;;;;;22.40;57.90;;;;;;5054305;28;1696;-68
2021/11/04 09:02:40;;;;;;;;;;;22.50;57.90;;;;;;5053904;28;1424;-69
2021/11/04 09:05:09;;;;;;;;;;;22.40;57.80;;;;;;5058742;28;1354;-69
2021/11/04 09:07:36;;;;;;;;;;;22.50;57.80;;;;;;5027081;28;1902;-67
2021/11/04 09:10:04;;;;;;;;;;;22.50;57.80;;;;;;5049101;28;1618;-69
2021/11/04 09:12:29;;;;;;;;;;;22.50;57.90;;;;;;5052646;28;1350;-69
2021/11/04 09:14:54;;;;;;;;;;;22.50;57.90;;;;;;5048074;28;1656;-69
2021/11/04 09:17:21;;;;;;;;;;;22.50;57.80;;;;;;5052805;28;1443;-69
2021/11/04 09:19:46;;;;;;;;;;;22.50;57.80;;;;;;5052773;28;1381;-69
2021/11/04 09:22:12;;;;;;;;;;;22.50;57.70;;;;;;5063492;28;1578;-69
2021/11/04 09:24:37;;;;;;;;;;;22.50;57.70;;;;;;5050870;28;1755;-70
2021/11/04 09:27:03;;;;;;;;;;;22.50;57.70;;;;;;5072687;28;1898;-70
2021/11/04 09:29:29;;;;;;;;;;;22.50;57.80;;;;;;5073020;28;1166;-69
2021/11/04 09:31:56;;;;;;;;;;;22.50;57.70;;;;;;5072792;28;1657;-69
2021/11/04 09:34:22;;;;;;;;;;;22.50;57.70;;;;;;5073217;28;1597;-68
2021/11/04 09:36:47;;;;;;;;;;;22.50;57.70;;;;;;5076974;28;1654;-68
2021/11/04 09:39:12;;;;;;;;;;;22.40;57.70;;;;;;5045447;28;1595;-70
2021/11/04 09:41:38;;;;;;;;;;;22.40;57.70;;;;;;5068048;28;2231;-69
2021/11/04 09:44:04;;;;;;;;;;;22.50;57.80;;;;;;5065133;28;1344;-70
2021/11/04 09:46:30;;;;;;;;;;;22.50;57.80;;;;;;5072005;28;1909;-70
2021/11/04 09:48:56;;;;;;;;;;;22.40;57.80;;;;;;5066549;28;1400;-70
2021/11/04 09:51:21;;;;;;;;;;;22.40;57.80;;;;;;5069361;28;1738;-70
2021/11/04 09:53:50;;;;;;;;;;;22.40;57.90;;;;;;5076220;28;1356;-70
2021/11/04 09:56:15;;;;;;;;;;;22.40;57.90;;;;;;5076250;28;1431;-70
2021/11/04 09:58:41;;;;;;;;;;;22.40;58.00;;;;;;5076283;28;1480;-72
2021/11/04 10:01:13;;;;;;;;;;;22.30;58.00;;;;;;5038157;28;1658;-70
2021/11/04 10:03:39;;;;;;;;;;;22.40;58.00;;;;;;5054587;28;1653;-69
2021/11/04 10:06:04;;;;;;;;;;;22.30;58.00;;;;;;5049116;28;1898;-70
2021/11/04 10:08:31;;;;;;;;;;;22.30;58.10;;;;;;5071795;28;1483;-70
2021/11/04 10:11:06;;;;;;;;;;;22.30;58.20;;;;;;5076020;28;1169;-70
2021/11/04 10:13:32;;;;;;;;;;;22.30;58.30;;;;;;5048612;28;1992;-70
2021/11/04 10:15:58;;;;;;;;;;;22.30;58.30;;;;;;5071621;28;1436;-69
2021/11/04 10:18:23;;;;;;;;;;;22.30;58.30;;;;;;5069542;28;1725;-70
2021/11/04 10:20:52;;;;;;;;;;;22.30;58.30;;;;;;5064370;28;1557;-70
2021/11/04 10:23:18;;;;;;;;;;;22.20;58.30;;;;;;5057928;28;1424;-69
2021/11/04 10:25:43;;;;;;;;;;;22.20;58.40;;;;;;5055894;28;1426;-70
2021/11/04 10:28:24;;;;;;;;;;;22.30;58.40;;;;;;5055820;28;1918;-70
2021/11/04 10:30:50;;;;;;;;;;;22.20;58.40;;;;;;5055476;28;1099;-69
2021/11/04 10:33:19;;;;;;;;;;;22.20;58.40;;;;;;5055696;28;1638;-70
2021/11/04 10:36:11;;;;;;;;;;;22.20;58.40;;;;;;5055601;28;1669;-70
2021/11/04 10:38:37;;;;;;;;;;;22.20;58.40;;;;;;5024495;28;1690;-69
2021/11/04 10:41:03;;;;;;;;;;;22.30;58.40;;;;;;5054420;28;1606;-68
2021/11/04 10:43:29;;;;;;;;;;;22.30;58.40;;;;;;5065088;28;1714;-69
2021/11/04 10:45:58;;;;;;;;;;;22.30;58.30;;;;;;5055083;28;1354;-69
2021/11/04 10:48:23;;;;;;;;;;;22.30;58.30;;;;;;5047590;28;1902;-71
2021/11/04 10:50:49;;;;;;;;;;;22.30;58.20;;;;;;5056407;28;1502;-72
2021/11/04 10:53:20;;;;;;;;;;;22.40;58.20;;;;;;5047850;28;1326;-70
2021/11/04 10:55:45;;;;;;;;;;;22.40;58.20;;;;;;5051405;28;1560;-67
2021/11/04 10:58:30;;;;;;;;;;;22.30;58.10;;;;;;5058558;28;1478;-68
2021/11/04 11:00:56;;;;;;;;;;;22.40;58.20;;;;;;5036287;28;1437;-69
2021/11/04 11:03:22;;;;;;;;;;;22.40;58.20;;;;;;5054670;28;1636;-70
2021/11/04 11:05:47;;;;;;;;;;;22.40;58.10;;;;;;5044373;28;1374;-68
2021/11/04 11:08:13;;;;;;;;;;;22.40;58.10;;;;;;5060586;28;1902;-71
2021/11/04 11:10:39;;;;;;;;;;;22.40;58.10;;;;;;5043185;28;1379;-70
2021/11/04 11:13:04;;;;;;;;;;;22.40;58.10;;;;;;5056152;28;1098;-67
2021/11/04 11:15:31;;;;;;;;;;;22.40;58.10;;;;;;5067378;28;1735;-68
2021/11/04 11:17:57;;;;;;;;;;;22.40;58.00;;;;;;5054200;28;1666;-70
2021/11/04 11:20:22;;;;;;;;;;;22.40;58.60;;;;;;5038264;28;1582;-70
2021/11/04 11:22:48;;;;;;;;;;;22.40;58.00;;;;;;5035840;28;1504;-66
2021/11/04 11:25:13;;;;;;;;;;;22.40;58.00;;;;;;5045596;28;1454;-67
2021/11/04 11:27:39;;;;;;;;;;;22.40;58.00;;;;;;5060202;28;1909;-68
2021/11/04 11:30:10;;;;;;;;;;;22.40;58.10;;;;;;5046715;28;2274;-70
2021/11/04 11:32:36;;;;;;;;;;;22.40;58.10;;;;;;5050712;28;1664;-69
2021/11/04 11:35:11;;;;;;;;;;;22.40;58.10;;;;;;5058814;28;1379;-70
2021/11/04 11:37:36;;;;;;;;;;;22.40;58.10;;;;;;5064252;28;1579;-69
2021/11/04 11:40:06;;;;;;;;;;;22.40;58.20;;;;;;5048377;28;1806;-70
2021/11/04 11:42:31;;;;;;;;;;;22.40;58.20;;;;;;5067754;28;1559;-70
2021/11/04 11:45:02;;;;;;;;;;;22.40;58.20;;;;;;5043018;28;1607;-68
2021/11/04 11:47:28;;;;;;;;;;;22.40;58.20;;;;;;5043168;28;1918;-68
2021/11/04 11:50:12;;;;;;;;;;;22.40;58.30;;;;;;5074189;28;1551;-69
2021/11/04 11:52:40;;;;;;;;;;;22.30;58.30;;;;;;5074099;28;1728;-69
2021/11/04 11:55:06;;;;;;;;;;;22.30;58.30;;;;;;5074146;28;1681;-69
2021/11/04 11:57:32;;;;;;;;;;;22.30;58.30;;;;;;5074060;28;1635;-69
2021/11/04 11:59:58;;;;;;;;;;;22.30;58.40;;;;;;5067627;28;1819;-70
2021/11/04 12:02:42;;;;;;;;;;;22.30;58.40;;;;;;5053066;28;1375;-69
2021/11/04 12:05:27;;;;;;;;;;;22.30;58.40;;;;;;5053510;28;1570;-70
2021/11/04 12:07:55;;;;;;;;;;;22.30;58.40;;;;;;5053329;28;1927;-71
2021/11/04 12:10:29;;;;;;;;;;;22.30;58.40;;;;;;5053686;28;1597;-72
2021/11/04 12:12:55;;;;;;;;;;;22.30;58.50;;;;;;5061108;28;1562;-70
2021/11/04 12:15:20;;;;;;;;;;;22.20;58.50;;;;;;5053829;28;1396;-69
2021/11/04 12:18:09;;;;;;;;;;;22.20;58.50;;;;;;5053733;28;1384;-69
2021/11/04 12:20:35;;;;;;;;;;;22.20;58.50;;;;;;5045181;28;1647;-69
2021/11/04 12:23:00;;;;;;;;;;;22.30;58.50;;;;;;5053145;28;1365;-69
2021/11/04 12:25:28;;;;;;;;;;;22.30;58.50;;;;;;5053718;28;1607;-69
2021/11/04 12:27:56;;;;;;;;;;;22.30;58.50;;;;;;5053360;28;1910;-69
2021/11/04 12:30:25;;;;;;;;;;;22.30;58.50;;;;;;5053685;28;1401;-69
2021/11/04 12:33:01;;;;;;;;;;;22.40;58.40;;;;;;5053250;28;1700;-69
2021/11/04 12:35:38;;;;;;;;;;;22.40;58.40;;;;;;5046615;28;1593;-69
2021/11/04 12:38:04;;;;;;;;;;;22.40;58.30;;;;;;5055494;28;1702;-69
2021/11/04 12:40:29;;;;;;;;;;;22.40;58.20;;;;;;5061198;28;1641;-69
2021/11/04 12:42:54;;;;;;;;;;;22.50;58.20;;;;;;5053109;28;1183;-69
2021/11/04 12:45:24;;;;;;;;;;;22.50;58.10;;;;;;5053393;28;1387;-69
2021/11/04 12:47:57;;;;;;;;;;;22.50;58.00;;;;;;5062524;28;1922;-69
2021/11/04 12:50:24;;;;;;;;;;;22.50;58.00;;;;;;5061452;28;1260;-70
2021/11/04 12:52:58;;;;;;;;;;;22.50;58.00;;;;;;5062430;28;1327;-68
2021/11/04 12:55:24;;;;;;;;;;;22.50;57.90;;;;;;5044988;28;1261;-68
2021/11/04 12:57:49;;;;;;;;;;;22.60;58.00;;;;;;5061401;28;1530;-70
2021/11/04 13:00:16;;;;;;;;;;;22.50;57.90;;;;;;5061007;28;1248;-70
2021/11/04 13:02:43;;;;;;;;;;;22.60;57.90;;;;;;5061161;28;1268;-70
2021/11/04 13:05:13;;;;;;;;;;;22.60;57.90;;;;;;5045393;28;1384;-69
2021/11/04 13:07:39;;;;;;;;;;;22.60;57.90;;;;;;5053609;28;1902;-69
2021/11/04 13:10:05;;;;;;;;;;;22.60;57.90;;;;;;5060128;28;1313;-69
2021/11/04 13:12:38;;;;;;;;;;;22.60;57.90;;;;;;5061169;28;1397;-68
2021/11/04 13:15:05;;;;;;;;;;;22.60;57.90;;;;;;5059513;28;2076;-68
2021/11/04 13:17:42;;;;;;;;;;;22.60;58.00;;;;;;5048320;28;1927;-67
2021/11/04 13:20:09;;;;;;;;;;;22.50;57.90;;;;;;5042876;28;1708;-70
2021/11/04 13:22:38;;;;;;;;;;;22.50;58.00;;;;;;5061786;28;1363;-70
2021/11/04 13:25:05;;;;;;;;;;;22.50;58.00;;;;;;5042061;28;1404;-70
2021/11/04 13:27:30;;;;;;;;;;;22.50;58.10;;;;;;5044205;28;1950;-70
2021/11/04 13:29:56;;;;;;;;;;;22.50;58.10;;;;;;5062326;28;1288;-70
2021/11/04 13:32:23;;;;;;;;;;;22.50;58.20;;;;;;5061481;28;1361;-69
2021/11/04 13:34:49;;;;;;;;;;;22.50;58.20;;;;;;5045473;28;1413;-69
2021/11/04 13:37:18;;;;;;;;;;;22.40;58.20;;;;;;5062912;28;1341;-70
2021/11/04 13:39:44;;;;;;;;;;;22.40;58.30;;;;;;5043348;28;1370;-68
2021/11/04 13:42:23;;;;;;;;;;;22.40;58.30;;;;;;5063131;28;1917;-68
2021/11/04 13:44:48;;;;;;;;;;;22.40;58.30;;;;;;5064981;28;1628;-71
2021/11/04 13:47:14;;;;;;;;;;;22.40;58.30;;;;;;5063609;28;1895;-70
2021/11/04 13:49:49;;;;;;;;;;;22.40;58.40;;;;;;5061981;28;1332;-70
2021/11/04 13:52:22;;;;;;;;;;;22.40;58.40;;;;;;5062223;28;1149;-71
2021/11/04 13:54:47;;;;;;;;;;;22.30;58.40;;;;;;5046864;28;1215;-71
2021/11/04 13:57:13;;;;;;;;;;;22.30;58.40;;;;;;5059357;28;1401;-72
2021/11/04 13:59:42;;;;;;;;;;;22.30;58.50;;;;;;5060936;28;1231;-71
2021/11/04 14:02:07;;;;;;;;;;;22.30;58.50;;;;;;5045464;28;1224;-72
2021/11/04 14:04:33;;;;;;;;;;;22.30;58.50;;;;;;5061818;28;1452;-70
2021/11/04 14:06:59;;;;;;;;;;;22.30;58.50;;;;;;5059338;28;1965;-69
2021/11/04 14:09:32;;;;;;;;;;;22.30;59.20;;;;;;5047524;28;1330;-68
2021/11/04 14:12:05;;;;;;;;;;;22.20;58.50;;;;;;5040726;28;1319;-70
2021/11/04 14:14:43;;;;;;;;;;;22.30;58.60;;;;;;5043311;28;1279;-67
2021/11/04 14:17:09;;;;;;;;;;;22.30;58.70;;;;;;5060671;28;1286;-68
2021/11/04 14:19:35;;;;;;;;;;;22.20;58.60;;;;;;5060117;28;1268;-69
2021/11/04 14:22:00;;;;;;;;;;;22.20;58.60;;;;;;5055746;28;1258;-70
2021/11/04 14:24:26;;;;;;;;;;;22.20;58.70;;;;;;5069645;28;1301;-71
2021/11/04 14:26:51;;;;;;;;;;;22.20;58.70;;;;;;5075545;28;1977;-70